Time;durP1;ratioP1;P1;durP2;ratioP2;P2;SDS_P1;SDS_P2;PMS_P1;PMS_P2;Temp;Humidity;BMP_temperature;BMP_pressure;BME280_temperature;BME280_humidity;BME280_pressure;Samples;Min_cycle;Max_cycle;Signal;HPM_P1;HPM_P2
2021/01/21 01:59:03;;;;;;;;;;;;;;;;;;;;;
2021/01/21 03:08:16;;;;;;;10.03;2.60;;;11.60;17.40;;;;;;5960925;23;20419;-80
2021/01/21 03:23:03;;;;;;;4.73;1.30;;;11.70;16.40;;;;;;6078224;23;20171;-83
2021/01/21 03:29:00;;;;;;;4.13;1.17;;;11.60;17.90;;;;;;5954972;24;20432;-81
2021/01/21 03:34:36;;;;;;;3.93;1.00;;;11.70;16.90;;;;;;6115553;23;20428;-81
2021/01/21 03:37:23;;;;;;;4.57;1.43;;;11.80;16.30;;;;;;6123593;23;20442;-81
2021/01/21 03:43:29;;;;;;;;;;;;;;;;;;;;;
2021/01/21 03:48:49;;;;;;;4.73;1.33;;;11.70;16.30;;;;;;6063763;23;20176;-81
2021/01/21 03:51:49;;;;;;;;;;;;;;;;;;;;;
2021/01/21 03:54:31;;;;;;;4.60;1.33;;;11.60;17.70;;;;;;6256311;23;20753;-81
2021/01/21 04:03:58;;;;;;;;;;;;;;;;;;;;;
2021/01/21 04:06:55;;;;;;;5.27;1.10;;;11.40;18.70;;;;;;6134928;23;20505;-81
2021/01/21 04:09:48;;;;;;;;;;;;;;;;;;;;;
2021/01/21 04:12:26;;;;;;;4.40;1.20;;;11.40;18.70;;;;;;6174010;23;20486;-80
2021/01/21 04:15:28;;;;;;;4.47;1.33;;;11.40;19.30;;;;;;6217265;23;20769;-80
2021/01/21 04:18:22;;;;;;;3.80;1.17;;;11.40;19.70;;;;;;6095580;23;20832;-81
2021/01/21 04:30:51;;;;;;;3.67;0.90;;;11.20;22.10;;;;;;5832750;24;20500;-80
2021/01/21 04:33:52;;;;;;;3.90;1.00;;;11.10;22.70;;;;;;5956549;24;20502;-81
2021/01/21 04:36:51;;;;;;;4.00;1.00;;;11.10;22.70;;;;;;5981374;24;20437;-82
2021/01/21 04:39:28;;;;;;;4.83;1.53;;;11.10;23.00;;;;;;6059518;23;20452;-81
2021/01/21 04:42:40;;;;;;;;;;;;;;;;;;;;;
2021/01/21 04:46:08;;;;;;;;;;;;;;;;;;;;;
2021/01/21 04:49:16;;;;;;;;;;;;;;;;;;;;;
2021/01/21 04:51:58;;;;;;;6.30;1.47;;;11.20;24.00;;;;;;6015984;23;20784;-82
2021/01/21 04:55:13;;;;;;;4.47;1.10;;;11.20;23.50;;;;;;6095580;23;21000;-82
2021/01/21 04:58:22;;;;;;;4.83;1.10;;;11.30;23.20;;;;;;6094998;23;20453;-81
2021/01/21 05:01:09;;;;;;;;;;;;;;;;;;;;;
2021/01/21 05:03:58;;;;;;;3.60;0.80;;;11.20;24.60;;;;;;6083254;23;20945;-81
2021/01/21 05:06:55;;;;;;;;;;;;;;;;;;;;;
2021/01/21 05:09:47;;;;;;;5.30;1.27;;;11.20;24.60;;;;;;5962425;23;20446;-81
2021/01/21 05:12:57;;;;;;;6.17;1.27;;;11.20;26.50;;;;;;6094939;23;20448;-81
2021/01/21 05:15:28;;;;;;;3.70;1.00;;;11.00;26.80;;;;;;6097542;23;20554;-81
2021/01/21 05:17:58;;;;;;;3.97;1.20;;;10.80;29.40;;;;;;6216350;23;20426;-81
2021/01/21 05:20:26;;;;;;;7.93;1.57;;;10.80;30.60;;;;;;6215430;23;20405;-80
2021/01/21 05:23:00;;;;;;;4.37;1.00;;;8.80;99.90;;;;;;6203722;23;20409;-80
2021/01/21 05:25:31;;;;;;;4.87;1.33;;;6.00;99.90;;;;;;6216294;23;20405;-81
2021/01/21 05:28:13;;;;;;;;;;;;;;;;;;;;;
2021/01/21 05:30:47;;;;;;;7.07;1.27;;;5.70;99.90;;;;;;6218188;23;20404;-81
2021/01/21 05:33:18;;;;;;;6.63;1.57;;;5.50;99.90;;;;;;6215871;23;20403;-81
2021/01/21 05:35:58;;;;;;;6.97;1.50;;;5.50;99.90;;;;;;6226264;23;20412;-81
2021/01/21 05:38:25;;;;;;;5.60;2.20;;;5.50;99.90;;;;;;6226212;23;20435;-80
2021/01/21 05:41:00;;;;;;;5.13;1.60;;;5.50;99.90;;;;;;6226337;23;20404;-80
2021/01/21 05:43:52;;;;;;;9.05;3.45;;;5.50;99.90;;;;;;6226495;23;20415;-83
2021/01/21 05:46:21;;;;;;;7.43;6.65;;;5.50;99.90;;;;;;6226363;23;20168;-83
2021/01/21 05:48:57;;;;;;;5.50;3.93;;;5.50;99.90;;;;;;6214914;23;20158;-84
2021/01/21 05:51:32;;;;;;;4.10;2.80;;;5.40;99.90;;;;;;6215731;23;20408;-83
2021/01/21 05:54:30;;;;;;;4.03;2.97;;;5.20;99.90;;;;;;6216400;23;20490;-83
2021/01/21 05:57:09;;;;;;;7.70;7.10;;;5.10;99.90;;;;;;6064972;23;20172;-82
2021/01/21 06:03:14;;;;;;;10.20;9.40;;;5.20;99.90;;;;;;6213643;23;20276;-81
2021/01/21 06:05:51;;;;;;;25.80;24.20;;;5.10;99.90;;;;;;6075213;23;20483;-81
2021/01/21 06:08:34;;;;;;;22.23;21.07;;;5.20;99.90;;;;;;6211295;23;20499;-81
2021/01/21 06:11:18;;;;;;;26.60;24.80;;;5.20;99.90;;;;;;6256854;23;20713;-81
2021/01/21 06:14:07;;;;;;;30.63;29.00;;;5.10;99.90;;;;;;6255763;23;20403;-82
2021/01/21 06:30:52;;;;;;;;;;;;;;;;;;;;;
2021/01/21 06:33:51;;;;;;;38.43;36.63;;;5.20;99.90;;;;;;6076766;23;20915;-81
2021/01/21 06:39:31;;;;;;;25.70;24.10;;;5.10;99.90;;;;;;6102545;23;20305;-80
2021/01/21 06:42:03;;;;;;;18.20;17.00;;;5.20;99.90;;;;;;6177565;23;20779;-80
2021/01/21 06:44:35;;;;;;;23.37;22.17;;;5.20;99.90;;;;;;6245407;23;20399;-84
2021/01/21 06:47:02;;;;;;;6.37;5.83;;;5.10;99.90;;;;;;6246311;23;20430;-83
2021/01/21 06:49:44;;;;;;;7.30;4.57;;;5.30;99.90;;;;;;6244759;23;20811;-83
2021/01/21 06:52:14;;;;;;;7.57;5.23;;;5.20;99.90;;;;;;6255839;23;20235;-83
2021/01/21 06:54:55;;;;;;;7.10;5.03;;;5.20;99.90;;;;;;6256248;23;20446;-92
2021/01/21 06:57:53;;;;;;;7.23;6.53;;;5.20;99.90;;;;;;6245331;23;20478;-84
2021/01/21 07:00:40;;;;;;;7.57;6.77;;;5.20;99.90;;;;;;6244628;23;20419;-83
2021/01/21 07:03:27;;;;;;;8.83;6.50;;;5.10;99.90;;;;;;6245091;23;20435;-83
2021/01/21 07:06:03;;;;;;;9.40;5.60;;;5.10;99.90;;;;;;6247145;23;20422;-83
2021/01/21 07:09:07;;;;;;;10.67;5.10;;;5.00;99.90;;;;;;6255446;23;20458;-84
2021/01/21 07:11:39;;;;;;;8.10;4.67;;;5.10;99.90;;;;;;6255916;23;20403;-86
2021/01/21 07:14:53;;;;;;;;;;;;;;;;;;;;;
2021/01/21 07:18:07;;;;;;;7.55;4.20;;;5.10;99.90;;;;;;6177249;23;20430;-86
2021/01/21 07:30:25;;;;;;;9.70;4.50;;;5.20;99.90;;;;;;6113708;23;20436;-82
2021/01/21 07:33:25;;;;;;;8.73;3.90;;;5.20;99.90;;;;;;6168862;23;20415;-83
2021/01/21 07:36:31;;;;;;;9.40;5.03;;;5.20;99.90;;;;;;6244936;23;20399;-87
2021/01/21 07:39:11;;;;;;;8.73;4.30;;;5.20;99.90;;;;;;6241992;23;20455;-82
2021/01/21 07:41:56;;;;;;;9.77;5.35;;;5.30;99.90;;;;;;6257770;23;20153;-82
2021/01/21 07:44:27;;;;;;;9.40;4.47;;;5.30;99.90;;;;;;6246375;23;20168;-83
2021/01/21 07:46:53;;;;;;;5.00;3.33;;;5.20;99.90;;;;;;6258194;23;20404;-81
2021/01/21 07:49:24;;;;;;;6.73;3.10;;;5.20;99.90;;;;;;6246420;23;20403;-82
2021/01/21 07:52:01;;;;;;;6.73;2.23;;;5.30;99.90;;;;;;6248006;23;20487;-82
2021/01/21 07:54:29;;;;;;;7.83;2.63;;;5.20;99.90;;;;;;6247765;23;20788;-82
2021/01/21 07:56:55;;;;;;;7.20;3.57;;;5.30;99.90;;;;;;6247915;23;20399;-82
2021/01/21 07:59:23;;;;;;;7.70;3.47;;;5.20;99.90;;;;;;6247578;23;20453;-82
2021/01/21 08:01:58;;;;;;;13.03;3.00;;;5.10;99.90;;;;;;6247904;23;20404;-81
2021/01/21 08:04:24;;;;;;;6.45;2.13;;;5.10;99.90;;;;;;6245673;23;20937;-81
2021/01/21 08:06:55;;;;;;;6.83;2.37;;;5.00;99.90;;;;;;6257794;23;20192;-82
2021/01/21 08:09:21;;;;;;;6.18;2.45;;;4.90;99.90;;;;;;6247405;23;20439;-81
2021/01/21 08:11:49;;;;;;;11.20;2.57;;;4.90;99.90;;;;;;6247797;23;20156;-81
2021/01/21 08:14:16;;;;;;;6.80;2.87;;;4.80;99.90;;;;;;6247914;23;20438;-81
2021/01/21 08:16:44;;;;;;;3.80;2.13;;;4.80;99.90;;;;;;6247784;23;20478;-81
2021/01/21 08:19:13;;;;;;;8.20;3.10;;;4.80;99.90;;;;;;6245975;23;20463;-82
2021/01/21 08:21:42;;;;;;;10.63;4.47;;;4.70;99.90;;;;;;6257403;23;20460;-82
2021/01/21 08:24:08;;;;;;;7.15;3.58;;;4.80;99.90;;;;;;6247751;23;20211;-82
2021/01/21 08:26:36;;;;;;;14.33;3.20;;;4.80;99.90;;;;;;6247468;23;20157;-81
2021/01/21 08:29:08;;;;;;;6.60;3.27;;;4.90;99.90;;;;;;6247605;23;20486;-82
2021/01/21 08:31:39;;;;;;;4.30;2.97;;;4.90;99.90;;;;;;6247628;23;20432;-82
2021/01/21 08:34:10;;;;;;;6.50;2.97;;;4.90;99.90;;;;;;6245844;23;20153;-81
2021/01/21 08:36:36;;;;;;;5.63;2.60;;;4.80;99.90;;;;;;6247749;23;20486;-81
2021/01/21 08:39:05;;;;;;;6.30;3.30;;;5.00;99.90;;;;;;6247046;23;20517;-82
2021/01/21 08:41:32;;;;;;;9.20;3.43;;;5.00;99.90;;;;;;6247581;23;20180;-82
2021/01/21 08:44:01;;;;;;;4.80;2.23;;;5.00;99.90;;;;;;6247468;23;20403;-82
2021/01/21 08:46:30;;;;;;;10.20;3.07;;;5.10;99.90;;;;;;6257846;23;20407;-82
2021/01/21 08:49:09;;;;;;;8.63;3.00;;;5.10;99.90;;;;;;6245335;23;20427;-82
2021/01/21 08:51:38;;;;;;;10.68;2.25;;;5.30;99.90;;;;;;6247292;23;20156;-81
2021/01/21 08:54:17;;;;;;;8.00;2.40;;;5.30;99.90;;;;;;6247539;23;20500;-82
2021/01/21 08:57:03;;;;;;;6.37;2.70;;;5.40;99.90;;;;;;6247239;23;20191;-82
2021/01/21 08:59:37;;;;;;;14.18;3.95;;;5.50;99.90;;;;;;6246973;23;20437;-82
2021/01/21 09:02:45;;;;;;;13.52;3.10;;;5.60;99.90;;;;;;6247508;23;20739;-82
2021/01/21 09:05:13;;;;;;;9.43;2.93;;;5.70;99.90;;;;;;6245576;23;20235;-82
2021/01/21 09:07:48;;;;;;;6.60;2.43;;;5.80;99.90;;;;;;6247204;23;20400;-82
2021/01/21 09:10:15;;;;;;;12.70;3.23;;;5.90;99.90;;;;;;6246584;23;20474;-82
2021/01/21 09:12:59;;;;;;;6.43;2.73;;;5.90;99.90;;;;;;6247277;23;20399;-82
2021/01/21 09:15:29;;;;;;;8.33;2.30;;;6.00;99.90;;;;;;6246741;23;20487;-82
2021/01/21 09:18:04;;;;;;;7.80;2.23;;;6.00;99.90;;;;;;6256673;23;20419;-79
2021/01/21 09:20:32;;;;;;;6.30;2.63;;;6.30;99.90;;;;;;6245585;23;20449;-80
2021/01/21 09:23:17;;;;;;;12.50;3.30;;;6.20;99.90;;;;;;6256981;23;20926;-79
2021/01/21 09:25:44;;;;;;;6.53;2.43;;;6.40;99.90;;;;;;6247358;23;20407;-79
2021/01/21 09:28:13;;;;;;;7.23;3.07;;;6.40;99.90;;;;;;6247075;23;20400;-80
2021/01/21 09:31:01;;;;;;;8.80;2.80;;;6.50;99.90;;;;;;6257197;23;20442;-81
2021/01/21 09:33:32;;;;;;;13.50;3.40;;;6.50;99.90;;;;;;6236409;23;20165;-82
2021/01/21 09:36:10;;;;;;;6.80;2.70;;;6.50;99.90;;;;;;6246779;23;20403;-83
2021/01/21 09:38:39;;;;;;;10.23;2.63;;;6.70;99.90;;;;;;6246650;23;20751;-82
2021/01/21 09:41:17;;;;;;;;;;;;;;;;;;;;;
2021/01/21 09:43:49;;;;;;;9.90;2.87;;;6.80;99.90;;;;;;6257147;23;20398;-82
2021/01/21 09:46:28;;;;;;;10.30;3.80;;;6.80;99.90;;;;;;6246968;23;20400;-82
2021/01/21 09:48:54;;;;;;;8.33;2.33;;;6.90;99.90;;;;;;6244540;23;20415;-82
2021/01/21 09:54:08;;;;;;;17.05;3.22;;;7.10;99.90;;;;;;6226490;23;20411;-82
2021/01/21 09:56:34;;;;;;;6.60;2.20;;;7.10;99.90;;;;;;6246632;23;20407;-83
2021/01/21 10:04:55;;;;;;;7.28;2.35;;;7.30;99.90;;;;;;6225083;23;20419;-83
2021/01/21 10:07:47;;;;;;;9.23;1.87;;;7.40;99.90;;;;;;6246309;23;20623;-83
2021/01/21 10:10:39;;;;;;;;;;;;;;;;;;;;;
2021/01/21 10:13:32;;;;;;;10.90;2.13;;;7.40;99.90;;;;;;6250663;23;20746;-83
2021/01/21 10:16:07;;;;;;;6.50;1.57;;;7.40;99.90;;;;;;6239608;23;20450;-82
2021/01/21 10:18:33;;;;;;;5.45;1.52;;;7.50;99.90;;;;;;6244239;23;20438;-83
2021/01/21 10:21:03;;;;;;;7.77;1.93;;;7.70;99.90;;;;;;6256563;23;20157;-80
2021/01/21 10:23:52;;;;;;;7.35;1.92;;;7.80;99.90;;;;;;6256230;23;20411;-80
2021/01/21 10:26:23;;;;;;;7.10;1.63;;;7.80;99.90;;;;;;6178338;23;20171;-80
2021/01/21 10:28:55;;;;;;;9.17;2.17;;;7.80;99.90;;;;;;6245873;23;20400;-80
2021/01/21 10:31:27;;;;;;;9.93;1.97;;;7.90;99.90;;;;;;6256290;23;20945;-80
2021/01/21 10:34:02;;;;;;;10.90;1.83;;;8.10;99.90;;;;;;6244392;23;20402;-81
2021/01/21 10:36:37;;;;;;;7.50;2.17;;;8.20;99.90;;;;;;6256033;23;20415;-80
2021/01/21 10:39:12;;;;;;;5.63;1.40;;;8.20;99.90;;;;;;6203000;23;20478;-80
2021/01/21 10:41:57;;;;;;;8.27;1.80;;;8.10;99.90;;;;;;6246152;23;20402;-80
2021/01/21 10:44:24;;;;;;;10.87;2.40;;;8.20;99.90;;;;;;6246362;23;20400;-80
2021/01/21 10:46:52;;;;;;;4.83;1.73;;;8.30;99.90;;;;;;6246328;23;20764;-81
2021/01/21 10:49:20;;;;;;;12.07;2.47;;;8.30;99.90;;;;;;6244206;23;20884;-81
2021/01/21 10:51:56;;;;;;;10.67;1.80;;;8.50;99.90;;;;;;6246416;23;20436;-80
2021/01/21 10:54:23;;;;;;;5.83;1.90;;;8.80;99.90;;;;;;6246198;23;20437;-81
2021/01/21 10:56:56;;;;;;;6.57;1.90;;;8.90;99.90;;;;;;6245980;23;20943;-80
2021/01/21 10:59:48;;;;;;;5.40;1.80;;;9.00;99.90;;;;;;6245709;23;20181;-81
2021/01/21 11:02:17;;;;;;;6.17;1.70;;;9.00;99.90;;;;;;6238678;23;20794;-80
2021/01/21 11:04:48;;;;;;;7.40;1.70;;;8.90;99.90;;;;;;6244556;23;20773;-80
2021/01/21 11:07:16;;;;;;;9.83;2.00;;;8.90;99.90;;;;;;6245802;23;20403;-80
2021/01/21 11:09:43;;;;;;;9.00;1.80;;;8.70;99.90;;;;;;6245579;23;20435;-81
2021/01/21 11:12:11;;;;;;;3.90;1.30;;;8.60;99.90;;;;;;6246003;23;20405;-81
2021/01/21 11:14:53;;;;;;;;;;;;;;;;;;;;;
2021/01/21 11:17:23;;;;;;;5.07;1.80;;;8.40;99.90;;;;;;6253333;23;20605;-80
2021/01/21 11:19:53;;;;;;;17.70;1.60;;;8.40;99.90;;;;;;6244327;23;20431;-81
2021/01/21 11:22:27;;;;;;;6.30;1.40;;;8.40;99.90;;;;;;6203419;23;20414;-80
2021/01/21 11:25:07;;;;;;;8.40;1.40;;;8.40;99.90;;;;;;6255847;23;20486;-81
2021/01/21 11:28:01;;;;;;;4.37;1.50;;;8.50;99.90;;;;;;6255637;23;20160;-81
2021/01/21 11:30:51;;;;;;;;;;;;;;;;;;;;;
2021/01/21 11:33:25;;;;;;;6.63;1.47;;;8.80;99.90;;;;;;6111034;23;20451;-80
2021/01/21 11:36:47;;;;;;;;;;;;;;;;;;;;;
2021/01/21 11:39:19;;;;;;;5.00;1.20;;;8.80;99.80;;;;;;6055092;23;20527;-81
2021/01/21 11:42:15;;;;;;;6.37;1.53;;;8.80;99.90;;;;;;6232328;23;20426;-81
2021/01/21 12:06:51;;;;;;;3.77;1.20;;;8.90;91.50;;;;;;5983130;23;20750;-80
2021/01/21 12:09:31;;;;;;;7.13;1.30;;;8.80;92.20;;;;;;6016713;23;20978;-82
2021/01/21 12:45:29;;;;;;;;;;;;;;;;;;;;;
2021/01/21 13:04:44;;;;;;;6.90;1.37;;;9.40;66.10;;;;;;5984031;23;20233;-82
2021/01/21 13:13:46;;;;;;;4.90;1.23;;;9.30;67.60;;;;;;6108319;23;20429;-81
2021/01/21 13:16:49;;;;;;;9.33;1.40;;;9.30;66.80;;;;;;6124643;23;20174;-81
2021/01/21 13:20:09;;;;;;;8.03;1.33;;;9.20;68.50;;;;;;6103183;23;20443;-82
2021/01/21 13:33:27;;;;;;;;;;;;;;;;;;;;;
2021/01/21 13:36:32;;;;;;;5.93;1.17;;;9.20;77.20;;;;;;6020679;23;20430;-82
2021/01/21 13:46:01;;;;;;;;;;;;;;;;;;;;;
2021/01/21 13:55:24;;;;;;;;;;;;;;;;;;;;;
2021/01/21 14:01:33;;;;;;;4.20;1.27;;;9.20;64.00;;;;;;6151986;23;20482;-81
2021/01/21 14:04:38;;;;;;;4.35;1.23;;;9.20;61.30;;;;;;6202435;23;20506;-82
2021/01/21 14:10:22;;;;;;;5.50;1.10;;;9.10;68.50;;;;;;6234073;23;20452;-82
2021/01/21 14:13:34;;;;;;;5.95;1.60;;;9.10;67.90;;;;;;6220711;23;20740;-82
2021/01/21 14:16:22;;;;;;;10.60;1.20;;;9.10;65.70;;;;;;6181190;23;20168;-81
2021/01/21 14:22:07;;;;;;;;;;;;;;;;;;;;;
2021/01/21 14:24:54;;;;;;;5.78;0.98;;;8.80;76.90;;;;;;6247806;23;20403;-81
2021/01/21 14:27:37;;;;;;;;;;;;;;;;;;;;;
2021/01/21 14:30:34;;;;;;;7.47;1.60;;;8.80;72.40;;;;;;6139176;23;20413;-81
2021/01/21 14:39:53;;;;;;;6.43;1.40;;;8.70;74.70;;;;;;6088944;23;20460;-81
2021/01/21 14:42:22;;;;;;;11.63;1.50;;;8.70;72.00;;;;;;6008286;23;20935;-81
2021/01/21 14:44:59;;;;;;;3.60;0.90;;;8.70;72.40;;;;;;6018250;23;20414;-81
2021/01/21 14:47:31;;;;;;;13.03;1.20;;;8.70;76.20;;;;;;6033867;23;20424;-82
2021/01/21 14:50:10;;;;;;;4.23;1.03;;;8.60;65.40;;;;;;6064434;23;20409;-81
2021/01/21 14:53:32;;;;;;;;;;;;;;;;;;;;;
2021/01/21 14:56:05;;;;;;;10.40;1.10;;;8.60;78.30;;;;;;6125884;23;20167;-82
2021/01/21 14:58:42;;;;;;;3.70;0.97;;;8.40;74.20;;;;;;6153246;23;20465;-81
2021/01/21 15:04:42;;;;;;;5.50;1.40;;;8.30;79.90;;;;;;6125372;23;20414;-81
2021/01/21 15:07:39;;;;;;;7.10;1.20;;;8.30;74.90;;;;;;6213986;23;20414;-82
2021/01/21 15:13:37;;;;;;;5.60;1.40;;;8.30;74.90;;;;;;6094429;23;20404;-82
2021/01/21 15:16:08;;;;;;;6.13;1.33;;;8.20;76.40;;;;;;6145717;23;20418;-81
2021/01/21 15:19:23;;;;;;;;;;;;;;;;;;;;;
2021/01/21 15:22:03;;;;;;;7.70;1.40;;;8.20;90.70;;;;;;6255785;23;20156;-82
2021/01/21 15:25:24;;;;;;;;;;;;;;;;;;;;;
2021/01/21 15:28:15;;;;;;;9.53;1.97;;;8.10;85.80;;;;;;6099622;23;20443;-82
2021/01/21 15:31:17;;;;;;;;;;;;;;;;;;;;;
2021/01/21 15:33:48;;;;;;;8.05;1.20;;;8.00;93.70;;;;;;6167992;23;20457;-82
2021/01/21 15:36:33;;;;;;;8.20;1.43;;;8.00;88.30;;;;;;6253132;23;20160;-81
2021/01/21 15:39:00;;;;;;;5.70;1.80;;;8.10;91.90;;;;;;6253959;23;20813;-83
2021/01/21 15:44:43;;;;;;;11.80;1.30;;;8.20;90.70;;;;;;6150652;23;20467;-83
2021/01/21 15:47:26;;;;;;;5.07;0.97;;;8.10;88.90;;;;;;6160871;23;20441;-84
2021/01/21 15:54:03;;;;;;;;;;;;;;;;;;;;;
2021/01/21 15:57:21;;;;;;;;;;;;;;;;;;;;;
2021/01/21 15:59:52;;;;;;;5.73;1.73;;;8.20;87.20;;;;;;6301271;22;20441;-80
2021/01/21 16:02:51;;;;;;;11.53;2.10;;;8.20;90.70;;;;;;6317937;22;20405;-80
2021/01/21 16:05:47;;;;;;;4.10;1.40;;;8.10;90.50;;;;;;6201416;23;20404;-80
2021/01/21 16:08:34;;;;;;;15.30;1.90;;;8.10;86.00;;;;;;6203850;23;21061;-81
2021/01/21 16:11:00;;;;;;;5.70;1.10;;;8.10;91.20;;;;;;6236258;22;20499;-80
2021/01/21 16:13:36;;;;;;;4.77;1.63;;;8.20;89.70;;;;;;6307371;22;20393;-80
2021/01/21 16:18:56;;;;;;;7.68;1.73;;;8.10;92.40;;;;;;6262055;22;20463;-81
2021/01/21 16:22:04;;;;;;;6.33;1.20;;;8.00;96.70;;;;;;6306819;22;20237;-81
2021/01/21 16:25:19;;;;;;;;;;;;;;;;;;;;;
2021/01/21 16:58:23;;;;;;;;;;;;;;;;;;;;;
2021/01/21 17:00:55;;;;;;;18.95;3.00;;;8.20;99.90;;;;;;5951131;23;21035;-81
2021/01/21 17:04:02;;;;;;;;;;;;;;;;;;;;;
2021/01/21 17:06:32;;;;;;;17.00;2.60;;;8.10;99.90;;;;;;6033317;23;20441;-82
2021/01/21 17:09:25;;;;;;;;;;;;;;;;;;;;;
2021/01/21 17:12:20;;;;;;;32.42;3.35;;;8.20;99.90;;;;;;6092503;23;20172;-83
2021/01/21 17:15:15;;;;;;;;;;;;;;;;;;;;;
2021/01/21 17:21:38;;;;;;;;;;;;;;;;;;;;;
2021/01/21 17:24:25;;;;;;;;;;;;;;;;;;;;;
2021/01/21 17:30:43;;;;;;;;;;;;;;;;;;;;;
2021/01/21 17:40:57;;;;;;;;;;;;;;;;;;;;;
2021/01/21 17:50:58;;;;;;;;;;;;;;;;;;;;;
2021/01/21 18:02:27;;;;;;;;;;;;;;;;;;;;;
2021/01/21 18:04:55;;;;;;;9.43;3.00;;;7.30;99.90;;;;;;6112112;23;20418;-81
2021/01/21 18:07:25;;;;;;;18.83;9.40;;;7.20;99.90;;;;;;6229081;22;20433;-81
2021/01/21 18:09:57;;;;;;;12.50;3.78;;;7.20;99.90;;;;;;6318154;22;20871;-80
2021/01/21 18:19:25;;;;;;;18.33;3.90;;;7.00;99.90;;;;;;6277619;22;20418;-83
2021/01/21 18:22:35;;;;;;;21.20;6.20;;;6.90;99.90;;;;;;6317834;22;20917;-82
2021/01/21 18:25:50;;;;;;;13.03;5.20;;;6.90;99.90;;;;;;6318758;22;20424;-82
2021/01/21 18:31:58;;;;;;;13.50;5.37;;;6.80;99.90;;;;;;6076831;23;20450;-81
2021/01/21 18:38:02;;;;;;;13.10;6.03;;;6.80;99.90;;;;;;6112300;22;20888;-82
2021/01/21 18:40:33;;;;;;;19.93;11.90;;;6.60;99.90;;;;;;6298273;22;20199;-81
2021/01/21 18:42:59;;;;;;;13.37;9.50;;;6.60;99.90;;;;;;6318023;22;20409;-81
2021/01/21 18:45:51;;;;;;;17.23;11.60;;;6.60;99.90;;;;;;6307732;22;20398;-82
2021/01/21 18:48:27;;;;;;;16.10;14.70;;;6.60;99.90;;;;;;6317665;22;20488;-82
2021/01/21 18:51:05;;;;;;;20.60;18.90;;;6.60;99.90;;;;;;6307340;22;20801;-82
2021/01/21 18:53:46;;;;;;;22.13;19.97;;;6.60;99.90;;;;;;6317729;22;20480;-82
2021/01/21 18:56:13;;;;;;;18.27;16.97;;;6.60;99.90;;;;;;6317840;22;20951;-82
2021/01/21 18:59:12;;;;;;;;;;;;;;;;;;;;;
2021/01/21 19:01:46;;;;;;;23.38;21.73;;;6.60;99.90;;;;;;6309349;22;20401;-81
2021/01/21 19:04:15;;;;;;;22.87;21.57;;;6.70;99.90;;;;;;6306257;22;20230;-82
2021/01/21 19:06:47;;;;;;;21.30;18.60;;;6.60;99.90;;;;;;6307456;22;20437;-81
2021/01/21 19:09:14;;;;;;;19.20;17.67;;;6.70;99.90;;;;;;6317934;22;20414;-82
2021/01/21 19:12:13;;;;;;;;;;;;;;;;;;;;;
2021/01/21 19:17:35;;;;;;;22.40;21.10;;;6.70;99.90;;;;;;6282747;22;20402;-82
2021/01/21 19:20:05;;;;;;;28.27;26.30;;;6.70;99.90;;;;;;6306103;22;20429;-82
2021/01/21 19:22:59;;;;;;;;;;;;;;;;;;;;;
2021/01/21 19:25:42;;;;;;;27.43;25.37;;;6.70;99.90;;;;;;6317820;22;20713;-82
2021/01/21 19:28:15;;;;;;;29.47;27.77;;;6.70;99.90;;;;;;6317923;22;20417;-82
2021/01/21 19:30:50;;;;;;;28.37;26.37;;;6.60;99.90;;;;;;6307683;22;20512;-82
2021/01/21 19:33:49;;;;;;;26.45;24.85;;;6.80;99.90;;;;;;6317373;22;20409;-82
2021/01/21 19:36:19;;;;;;;27.75;25.70;;;6.70;99.90;;;;;;6296438;22;20196;-82
2021/01/21 19:39:28;;;;;;;35.63;33.40;;;6.80;99.90;;;;;;6320829;22;20162;-83
2021/01/21 19:49:14;;;;;;;35.97;33.75;;;6.70;99.90;;;;;;6014117;23;20466;-83
2021/01/21 19:58:14;;;;;;;46.43;42.77;;;6.80;99.90;;;;;;6067973;23;20424;-84
2021/01/21 20:00:47;;;;;;;54.97;50.57;;;6.80;99.90;;;;;;6077898;23;20444;-83
2021/01/21 20:03:41;;;;;;;52.10;46.07;;;6.80;99.90;;;;;;6068340;23;20416;-83
2021/01/21 20:12:49;;;;;;;26.83;25.07;;;6.90;99.90;;;;;;6321238;22;20436;-85
2021/01/21 20:15:32;;;;;;;25.33;23.63;;;7.00;99.90;;;;;;6321288;22;20400;-86
2021/01/21 20:18:04;;;;;;;23.00;21.25;;;7.10;99.90;;;;;;6321205;22;20880;-84
2021/01/21 20:20:43;;;;;;;;;;;;;;;;;;;;;
2021/01/21 20:23:19;;;;;;;22.95;21.65;;;7.10;99.90;;;;;;6321167;22;20501;-85
2021/01/21 20:25:57;;;;;;;20.87;19.67;;;7.20;99.90;;;;;;6320334;22;20615;-84
2021/01/21 20:28:36;;;;;;;19.53;18.47;;;7.20;99.90;;;;;;6310761;22;20390;-85
2021/01/21 20:31:32;;;;;;;17.60;16.67;;;7.20;99.90;;;;;;6310676;22;20899;-85
2021/01/21 20:34:08;;;;;;;22.97;21.87;;;7.30;99.90;;;;;;6247026;22;20405;-84
2021/01/21 20:36:42;;;;;;;20.45;19.35;;;7.30;99.90;;;;;;6310957;22;20393;-83
2021/01/21 20:39:21;;;;;;;18.00;16.80;;;7.30;99.90;;;;;;6292220;22;20163;-84
2021/01/21 20:41:52;;;;;;;15.67;14.87;;;7.40;99.90;;;;;;6310780;22;20477;-84
2021/01/21 20:44:35;;;;;;;16.00;15.03;;;7.50;99.90;;;;;;6320888;22;20417;-85
2021/01/21 20:47:01;;;;;;;18.30;17.20;;;7.60;99.90;;;;;;6319062;22;20876;-84
2021/01/21 20:49:33;;;;;;;25.77;24.57;;;7.50;99.90;;;;;;6318327;22;20409;-86
2021/01/21 20:52:03;;;;;;;31.17;29.50;;;7.40;99.90;;;;;;6319411;22;20433;-84
2021/01/21 20:54:33;;;;;;;31.83;30.33;;;7.50;99.90;;;;;;6319976;22;20974;-84
2021/01/21 20:57:17;;;;;;;26.92;25.52;;;7.50;99.90;;;;;;6319261;22;20155;-84
2021/01/21 21:00:10;;;;;;;;;;;;;;;;;;;;;
2021/01/21 21:02:42;;;;;;;19.73;18.27;;;7.60;99.90;;;;;;6308212;22;20408;-83
2021/01/21 21:05:21;;;;;;;26.50;25.23;;;7.60;99.90;;;;;;6308873;22;20394;-83
2021/01/21 21:10:33;;;;;;;32.23;30.67;;;7.50;99.90;;;;;;6306757;22;20409;-82
2021/01/21 21:13:00;;;;;;;36.03;34.43;;;7.60;99.90;;;;;;6319240;22;20450;-83
2021/01/21 21:15:28;;;;;;;31.87;30.37;;;7.50;99.90;;;;;;6308982;22;20439;-81
2021/01/21 21:18:15;;;;;;;;;;;;;;;;;;;;;
2021/01/21 21:20:50;;;;;;;18.87;17.97;;;7.70;99.90;;;;;;6294040;22;20441;-82
2021/01/21 21:23:26;;;;;;;7.87;7.37;;;8.10;99.90;;;;;;6318717;22;20417;-83
2021/01/21 21:26:00;;;;;;;6.33;5.73;;;8.50;99.90;;;;;;6296451;22;20401;-82
2021/01/21 21:28:30;;;;;;;4.77;4.30;;;8.60;99.90;;;;;;6308713;22;20766;-83
2021/01/21 21:31:00;;;;;;;5.40;4.90;;;8.80;99.90;;;;;;6308672;22;20447;-81
2021/01/21 21:33:27;;;;;;;5.77;3.00;;;8.90;99.90;;;;;;6307513;22;20394;-83
2021/01/21 21:35:59;;;;;;;5.27;3.20;;;9.00;99.90;;;;;;6308657;22;20398;-82
2021/01/21 21:38:30;;;;;;;4.10;2.57;;;9.20;99.90;;;;;;6318835;22;20405;-82
2021/01/21 21:40:59;;;;;;;3.80;2.17;;;9.30;99.90;;;;;;6308413;22;20479;-82
2021/01/21 21:43:35;;;;;;;;;;;;;;;;;;;;;
2021/01/21 21:46:06;;;;;;;7.40;2.93;;;9.50;99.90;;;;;;6313143;22;20415;-82
2021/01/21 21:48:47;;;;;;;3.97;2.17;;;9.40;99.90;;;;;;6306508;22;20398;-82
2021/01/21 21:51:16;;;;;;;3.80;2.10;;;9.50;99.90;;;;;;6307917;22;20438;-82
2021/01/21 21:53:45;;;;;;;4.23;2.30;;;9.60;99.90;;;;;;6308385;22;20399;-82
2021/01/21 21:56:12;;;;;;;3.20;1.37;;;9.60;99.90;;;;;;6318688;22;20427;-82
2021/01/21 21:58:57;;;;;;;7.30;2.30;;;9.60;99.90;;;;;;6307626;22;20397;-82
2021/01/21 22:01:28;;;;;;;4.70;1.70;;;9.70;99.90;;;;;;6306688;22;20503;-82
2021/01/21 22:03:55;;;;;;;3.30;1.40;;;9.70;99.90;;;;;;6295341;22;20531;-83
2021/01/21 22:06:25;;;;;;;5.90;2.57;;;9.70;99.90;;;;;;6308331;22;20441;-82
2021/01/21 22:09:05;;;;;;;;;;;;;;;;;;;;;
2021/01/21 22:11:40;;;;;;;3.92;1.55;;;9.70;99.90;;;;;;6307305;22;20454;-83
2021/01/21 22:14:15;;;;;;;4.33;1.80;;;9.70;99.90;;;;;;6308165;22;20559;-83
2021/01/21 22:17:05;;;;;;;4.50;1.53;;;9.80;99.90;;;;;;6308079;22;20393;-83
2021/01/21 22:19:49;;;;;;;4.90;1.40;;;9.80;99.90;;;;;;6295138;22;20430;-83
2021/01/21 22:22:47;;;;;;;3.10;1.00;;;9.90;99.90;;;;;;6318639;22;20402;-83
2021/01/21 22:25:24;;;;;;;4.03;1.00;;;10.00;99.90;;;;;;6257708;22;20409;-83
2021/01/21 22:27:57;;;;;;;4.70;1.10;;;10.20;99.90;;;;;;6295047;22;20527;-82
2021/01/21 22:30:26;;;;;;;4.13;1.17;;;10.10;99.90;;;;;;6307657;22;20400;-82
2021/01/21 22:33:21;;;;;;;;;;;;;;;;;;;;;
2021/01/21 22:38:38;;;;;;;4.50;1.57;;;10.20;99.90;;;;;;6216876;22;20231;-81
2021/01/21 22:41:23;;;;;;;3.90;1.10;;;10.30;99.90;;;;;;6256344;23;20443;-84
2021/01/21 22:44:11;;;;;;;;;;;;;;;;;;;;;
2021/01/21 22:47:01;;;;;;;3.43;0.90;;;10.40;99.90;;;;;;6250449;22;20407;-83
2021/01/21 22:49:42;;;;;;;4.03;1.23;;;10.50;99.90;;;;;;6102341;23;20448;-84
2021/01/21 22:55:44;;;;;;;;;;;;;;;;;;;;;
2021/01/21 22:58:38;;;;;;;3.60;0.90;;;10.50;99.90;;;;;;6245510;22;20408;-85
2021/01/21 23:01:38;;;;;;;;;;;;;;;;;;;;;
2021/01/21 23:07:33;;;;;;;5.50;1.43;;;10.30;99.90;;;;;;6225570;23;20851;-86
2021/01/21 23:10:36;;;;;;;4.23;1.20;;;10.10;99.90;;;;;;6210670;23;20408;-84
2021/01/21 23:13:20;;;;;;;6.77;1.10;;;10.20;99.90;;;;;;6209455;23;20413;-85
2021/01/21 23:16:07;;;;;;;8.40;1.97;;;10.20;99.90;;;;;;6215765;23;20397;-85
2021/01/21 23:18:42;;;;;;;5.10;1.27;;;10.10;99.90;;;;;;6214147;23;20484;-85
2021/01/21 23:21:45;;;;;;;4.30;1.17;;;10.10;99.90;;;;;;6215692;23;20510;-85
2021/01/21 23:28:21;;;;;;;;;;;;;;;;;;;;;
2021/01/21 23:34:04;;;;;;;4.30;0.90;;;9.90;99.90;;;;;;6132398;23;21021;-85
2021/01/21 23:40:06;;;;;;;4.05;1.35;;;10.10;99.90;;;;;;6117280;23;20442;-85
2021/01/21 23:43:11;;;;;;;;;;;;;;;;;;;;;
2021/01/21 23:49:35;;;;;;;;;;;;;;;;;;;;;
2021/01/21 23:52:37;;;;;;;4.00;1.10;;;10.10;99.90;;;;;;6225779;23;20399;-85
2021/01/21 23:55:28;;;;;;;3.47;0.97;;;10.10;99.90;;;;;;6192381;23;20479;-85